createdAt,value
2023-02-26T00:00:46.615Z,952.77
2023-02-26T00:01:46.651Z,952.78
2023-02-26T00:02:46.496Z,952.84
2023-02-26T00:04:46.503Z,952.87
2023-02-26T00:05:46.506Z,952.82
2023-02-26T00:06:46.538Z,952.86
2023-02-26T00:07:46.573Z,952.84
2023-02-26T00:08:46.506Z,952.86
2023-02-26T00:09:46.515Z,952.83
2023-02-26T00:10:46.509Z,952.8
2023-02-26T00:11:46.540Z,952.87
2023-02-26T00:12:46.535Z,952.83
2023-02-26T00:13:46.529Z,952.85
2023-02-26T00:14:46.618Z,952.89
2023-02-26T00:16:46.634Z,952.86
2023-02-26T00:17:46.544Z,952.89
2023-02-26T00:18:46.539Z,952.86
2023-02-26T00:19:46.526Z,952.89
2023-02-26T00:20:46.542Z,952.92
2023-02-26T00:21:46.542Z,952.9
2023-02-26T00:23:46.634Z,952.95
2023-02-26T00:25:46.570Z,952.97
2023-02-26T00:27:46.597Z,952.99
2023-02-26T00:29:46.661Z,953
2023-02-26T00:31:46.647Z,952.96
2023-02-26T00:32:46.597Z,952.94
2023-02-26T00:33:46.573Z,953.03
2023-02-26T00:34:46.711Z,953.04
2023-02-26T00:35:46.580Z,953.01
2023-02-26T00:36:46.577Z,953.06
2023-02-26T00:37:46.788Z,953.03
2023-02-26T00:38:46.662Z,952.94
2023-02-26T00:39:46.580Z,953.02
2023-02-26T00:40:46.618Z,953.01
2023-02-26T00:41:46.662Z,952.97
2023-02-26T00:42:46.627Z,953.06
2023-02-26T00:43:46.575Z,953.01
2023-02-26T00:44:46.678Z,953.03
2023-02-26T00:45:46.773Z,953.1
2023-02-26T00:46:46.591Z,953.14
2023-02-26T00:47:46.668Z,953.09
2023-02-26T00:48:46.742Z,953.14
2023-02-26T00:49:46.716Z,953.17
2023-02-26T00:51:46.824Z,953.13
2023-02-26T00:53:46.841Z,953.11
2023-02-26T00:54:46.618Z,953.08
2023-02-26T00:55:46.635Z,953.1
2023-02-26T00:56:46.632Z,953.13
2023-02-26T00:59:46.743Z,953.11
2023-02-26T01:00:46.665Z,953.07
2023-02-26T01:01:46.649Z,953.04
2023-02-26T01:02:46.648Z,953.09
2023-02-26T01:03:46.738Z,953.13
2023-02-26T01:04:46.654Z,953.12
2023-02-26T01:05:46.656Z,953.13
2023-02-26T01:06:46.662Z,953.08
2023-02-26T01:07:46.645Z,953.1
2023-02-26T01:08:46.665Z,953.09
2023-02-26T01:09:46.644Z,953.06
2023-02-26T01:10:46.659Z,953.04
2023-02-26T01:11:46.658Z,953.02
2023-02-26T01:12:46.660Z,952.99
2023-02-26T01:13:46.646Z,953.03
2023-02-26T01:14:46.655Z,953.01
2023-02-26T01:15:46.709Z,953.04
2023-02-26T01:16:46.662Z,953
2023-02-26T01:17:46.671Z,952.96
2023-02-26T01:18:46.664Z,952.98
2023-02-26T01:19:46.731Z,952.99
2023-02-26T01:20:46.668Z,952.95
2023-02-26T01:21:46.775Z,952.91
2023-02-26T01:22:46.675Z,952.94
2023-02-26T01:23:46.686Z,952.95
2023-02-26T01:26:46.774Z,952.93
2023-02-26T01:27:46.701Z,952.86
2023-02-26T01:28:46.689Z,952.92
2023-02-26T01:29:46.703Z,952.88
2023-02-26T01:30:46.807Z,952.85
2023-02-26T01:32:46.791Z,952.87
2023-02-26T01:33:46.723Z,952.88
2023-02-26T01:34:46.881Z,952.89
2023-02-26T01:35:46.710Z,952.85
2023-02-26T01:36:46.812Z,952.89
2023-02-26T01:37:46.773Z,952.83
2023-02-26T01:38:46.719Z,952.84
2023-02-26T01:40:46.782Z,952.82
2023-02-26T01:41:46.748Z,952.88
2023-02-26T01:42:46.718Z,952.86
2023-02-26T01:43:46.733Z,952.88
2023-02-26T01:44:46.736Z,952.91
2023-02-26T01:45:46.733Z,952.93
2023-02-26T01:46:46.751Z,952.88
2023-02-26T01:47:46.740Z,952.91
2023-02-26T01:48:46.757Z,952.88
2023-02-26T01:49:46.739Z,952.93
2023-02-26T01:51:46.759Z,952.9
2023-02-26T01:52:46.752Z,952.93
2023-02-26T01:53:46.765Z,952.95
2023-02-26T01:54:46.766Z,952.93
2023-02-26T01:55:46.769Z,952.95
2023-02-26T01:57:46.772Z,952.92
2023-02-26T01:58:46.770Z,952.94
2023-02-26T01:59:46.776Z,952.88
2023-02-26T02:00:46.842Z,952.89
2023-02-26T02:02:47.235Z,952.88
2023-02-26T02:04:46.851Z,952.87
2023-02-26T02:05:46.785Z,952.86
2023-02-26T02:06:46.794Z,952.87
2023-02-26T02:07:46.780Z,952.83
2023-02-26T02:09:46.832Z,952.81
2023-02-26T02:10:46.800Z,952.79
2023-02-26T02:11:46.798Z,952.78
2023-02-26T02:12:46.856Z,952.8
2023-02-26T02:13:46.802Z,952.79
2023-02-26T02:14:46.829Z,952.81
2023-02-26T02:16:46.963Z,952.83
2023-02-26T02:17:46.895Z,952.79
2023-02-26T02:18:46.830Z,952.84
2023-02-26T02:19:46.823Z,952.8
2023-02-26T02:20:46.809Z,952.84
2023-02-26T02:21:46.838Z,952.82
2023-02-26T02:22:46.840Z,952.87
2023-02-26T02:23:46.901Z,952.82
2023-02-26T02:24:46.829Z,952.84
2023-02-26T02:25:46.824Z,952.8
2023-02-26T02:26:46.823Z,952.84
2023-02-26T02:27:46.965Z,952.83
2023-02-26T02:29:46.891Z,952.84
2023-02-26T02:31:47.133Z,952.92
2023-02-26T02:32:46.917Z,952.9
2023-02-26T02:34:46.834Z,952.89
2023-02-26T02:35:46.914Z,952.92
2023-02-26T02:37:46.965Z,952.91
2023-02-26T02:38:46.840Z,952.89
2023-02-26T02:39:46.909Z,952.92
2023-02-26T02:40:46.974Z,952.94
2023-02-26T02:41:46.870Z,952.92
2023-02-26T02:42:46.881Z,952.94
2023-02-26T02:43:46.973Z,952.93
2023-02-26T02:45:47.017Z,952.96
2023-02-26T02:46:46.925Z,952.92
2023-02-26T02:47:46.922Z,952.93
2023-02-26T02:48:46.882Z,952.91
2023-02-26T02:49:46.891Z,952.95
2023-02-26T02:51:47.009Z,952.98
2023-02-26T02:52:46.884Z,952.95
2023-02-26T02:53:46.901Z,952.99
2023-02-26T02:54:46.901Z,953
2023-02-26T02:55:46.898Z,952.95
2023-02-26T02:56:46.893Z,952.97
2023-02-26T02:57:46.895Z,952.93
2023-02-26T02:59:46.994Z,952.96
2023-02-26T03:00:46.979Z,952.93
2023-02-26T03:01:46.906Z,952.94
2023-02-26T03:03:46.911Z,952.95
2023-02-26T03:04:47.036Z,952.94
2023-02-26T03:05:46.964Z,952.97
2023-02-26T03:06:47.026Z,952.92
2023-02-26T03:07:46.927Z,952.88
2023-02-26T03:08:47.066Z,952.9
2023-02-26T03:09:46.923Z,952.91
2023-02-26T03:10:46.934Z,952.94
2023-02-26T03:12:46.944Z,952.96
2023-02-26T03:14:47.002Z,952.94
2023-02-26T03:15:46.955Z,952.95
2023-02-26T03:16:46.999Z,952.91
2023-02-26T03:17:46.957Z,952.97
2023-02-26T03:18:47.043Z,952.94
2023-02-26T03:19:47.007Z,952.95
2023-02-26T03:20:46.955Z,952.94
2023-02-26T03:21:47.033Z,952.93
2023-02-26T03:22:46.963Z,952.96
2023-02-26T03:23:47.033Z,952.98
2023-02-26T03:24:46.951Z,952.95
2023-02-26T03:26:47.040Z,952.94
2023-02-26T03:28:48.143Z,952.98
2023-02-26T03:29:47.108Z,952.94
2023-02-26T03:30:47.095Z,952.97
2023-02-26T03:31:47.077Z,953.02
2023-02-26T03:32:46.987Z,953
2023-02-26T03:33:46.975Z,952.98
2023-02-26T03:34:47.006Z,953.01
2023-02-26T03:35:46.993Z,953
2023-02-26T03:38:47.016Z,953.06
2023-02-26T03:39:46.994Z,953.04
2023-02-26T03:40:46.998Z,953.03
2023-02-26T03:41:47.019Z,953.04
2023-02-26T03:42:47.078Z,953.05
2023-02-26T03:43:47.029Z,953.09
2023-02-26T03:44:47.042Z,953.07
2023-02-26T03:45:47.054Z,953.09
2023-02-26T03:47:47.115Z,953.08
2023-02-26T03:48:47.101Z,953.09
2023-02-26T03:49:47.145Z,953.07
2023-02-26T03:50:47.017Z,953.08
2023-02-26T03:52:47.100Z,953.05
2023-02-26T03:53:47.148Z,953.08
2023-02-26T03:54:47.088Z,953.09
2023-02-26T03:55:47.168Z,953.12
2023-02-26T03:56:47.128Z,953.11
2023-02-26T03:57:47.198Z,953.18
2023-02-26T03:58:47.167Z,953.16
2023-02-26T04:00:47.063Z,953.15
2023-02-26T04:01:47.054Z,953.2
2023-02-26T04:02:47.069Z,953.18
2023-02-26T04:03:47.044Z,953.16
2023-02-26T04:04:47.068Z,953.21
2023-02-26T04:06:47.114Z,953.19
2023-02-26T04:07:47.177Z,953.22
2023-02-26T04:08:47.066Z,953.2
2023-02-26T04:09:47.079Z,953.25
2023-02-26T04:10:47.073Z,953.2
2023-02-26T04:11:47.111Z,953.23
2023-02-26T04:13:47.087Z,953.24
2023-02-26T04:14:47.091Z,953.25
2023-02-26T04:15:48.339Z,953.26
2023-02-26T04:16:47.242Z,953.25
2023-02-26T04:18:47.184Z,953.27
2023-02-26T04:19:47.207Z,953.28
2023-02-26T04:20:47.090Z,953.29
2023-02-26T04:22:47.095Z,953.3
2023-02-26T04:23:47.116Z,953.32
2023-02-26T04:24:47.131Z,953.34
2023-02-26T04:25:47.190Z,953.32
2023-02-26T04:26:47.169Z,953.36
2023-02-26T04:27:47.139Z,953.34
2023-02-26T04:28:47.097Z,953.3
2023-02-26T04:31:47.270Z,953.28
2023-02-26T04:32:47.127Z,953.29
2023-02-26T04:33:47.264Z,953.28
2023-02-26T04:34:47.130Z,953.35
2023-02-26T04:36:47.135Z,953.33
2023-02-26T04:37:47.136Z,953.34
2023-02-26T04:39:47.131Z,953.33
2023-02-26T04:40:47.335Z,953.34
2023-02-26T04:41:47.175Z,953.3
2023-02-26T04:42:47.519Z,953.36
2023-02-26T04:43:47.140Z,953.38
2023-02-26T04:44:47.138Z,953.37
2023-02-26T04:45:47.139Z,953.39
2023-02-26T04:48:47.242Z,953.35
2023-02-26T04:50:47.171Z,953.33
2023-02-26T04:52:47.184Z,953.31
2023-02-26T04:53:47.150Z,953.29
2023-02-26T04:54:47.368Z,953.36
2023-02-26T04:55:47.234Z,953.33
2023-02-26T04:56:47.177Z,953.35
2023-02-26T04:57:47.370Z,953.33
2023-02-26T04:58:47.183Z,953.34
2023-02-26T04:59:47.168Z,953.33
2023-02-26T05:00:47.169Z,953.37
2023-02-26T05:01:48.620Z,953.35
2023-02-26T05:02:47.194Z,953.33
2023-02-26T05:07:47.282Z,953.34
2023-02-26T05:08:47.231Z,953.38
2023-02-26T05:09:47.245Z,953.39
2023-02-26T05:10:47.212Z,953.4
2023-02-26T05:11:47.338Z,953.39
2023-02-26T05:12:47.248Z,953.42
2023-02-26T05:13:47.230Z,953.4
2023-02-26T05:14:47.228Z,953.41
2023-02-26T05:15:47.306Z,953.42
2023-02-26T05:16:47.381Z,953.44
2023-02-26T05:17:47.218Z,953.38
2023-02-26T05:18:47.301Z,953.42
2023-02-26T05:19:47.265Z,953.44
2023-02-26T05:20:47.253Z,953.43
2023-02-26T05:24:47.328Z,953.42
2023-02-26T05:25:47.257Z,953.41
2023-02-26T05:26:47.249Z,953.46
2023-02-26T05:27:47.245Z,953.45
2023-02-26T05:28:47.388Z,953.41
2023-02-26T05:29:47.259Z,953.45
2023-02-26T05:31:47.455Z,953.48
2023-02-26T05:32:47.386Z,953.49
2023-02-26T05:33:47.246Z,953.46
2023-02-26T05:34:47.276Z,953.47
2023-02-26T05:35:47.268Z,953.49
2023-02-26T05:36:47.272Z,953.48
2023-02-26T05:37:47.253Z,953.46
2023-02-26T05:38:47.269Z,953.5
2023-02-26T05:39:47.424Z,953.43
2023-02-26T05:40:47.288Z,953.48
2023-02-26T05:41:47.283Z,953.43
2023-02-26T05:42:47.283Z,953.47
2023-02-26T05:43:47.388Z,953.51
2023-02-26T05:44:47.384Z,953.52
2023-02-26T05:45:47.437Z,953.53
2023-02-26T05:46:47.480Z,953.58
2023-02-26T05:47:47.300Z,953.52
2023-02-26T05:49:47.314Z,953.53
2023-02-26T05:50:47.299Z,953.54
2023-02-26T05:51:47.369Z,953.59
2023-02-26T05:53:47.414Z,953.6
2023-02-26T05:54:47.312Z,953.62
2023-02-26T05:55:47.310Z,953.64
2023-02-26T05:56:47.298Z,953.68
2023-02-26T05:57:47.321Z,953.69
2023-02-26T05:58:47.324Z,953.7
2023-02-26T05:59:47.316Z,953.75
2023-02-26T06:00:47.319Z,953.71
2023-02-26T06:01:47.434Z,953.76
2023-02-26T06:02:47.583Z,953.79
2023-02-26T06:03:47.327Z,953.75
2023-02-26T06:04:47.322Z,953.74
2023-02-26T06:05:47.317Z,953.8
2023-02-26T06:07:47.654Z,953.83
2023-02-26T06:08:47.489Z,953.78
2023-02-26T06:09:47.335Z,953.81
2023-02-26T06:11:47.337Z,953.8
2023-02-26T06:12:47.346Z,953.84
2023-02-26T06:13:47.419Z,953.82
2023-02-26T06:14:47.347Z,953.86
2023-02-26T06:15:47.461Z,953.87
2023-02-26T06:16:47.379Z,953.89
2023-02-26T06:17:47.339Z,953.88
2023-02-26T06:18:47.346Z,953.86
2023-02-26T06:19:47.361Z,953.93
2023-02-26T06:21:47.630Z,953.91
2023-02-26T06:22:47.469Z,953.96
2023-02-26T06:23:47.364Z,953.99
2023-02-26T06:24:47.451Z,953.97
2023-02-26T06:25:47.360Z,953.98
2023-02-26T06:26:47.507Z,953.99
2023-02-26T06:27:47.397Z,954.01
2023-02-26T06:29:47.532Z,953.99
2023-02-26T06:30:47.443Z,953.96
2023-02-26T06:31:47.501Z,953.99
2023-02-26T06:32:47.462Z,954.05
2023-02-26T06:33:47.420Z,954.02
2023-02-26T06:34:47.425Z,954.04
2023-02-26T06:37:47.480Z,954.01
2023-02-26T06:38:47.424Z,954.07
2023-02-26T06:39:47.489Z,954.06
2023-02-26T06:40:47.407Z,954.08
2023-02-26T06:41:47.563Z,954.12
2023-02-26T06:42:47.511Z,954.09
2023-02-26T06:43:47.413Z,954.15
2023-02-26T06:45:47.462Z,954.16
2023-02-26T06:46:48.824Z,954.17
2023-02-26T06:47:47.548Z,954.19
2023-02-26T06:49:48.551Z,954.14
2023-02-26T06:50:47.440Z,954.21
2023-02-26T06:52:47.443Z,954.25
2023-02-26T06:53:47.441Z,954.2
2023-02-26T06:54:47.453Z,954.24
2023-02-26T06:55:47.489Z,954.2
2023-02-26T06:56:47.570Z,954.24
2023-02-26T06:57:47.457Z,954.22
2023-02-26T06:58:47.602Z,954.28
2023-02-26T06:59:47.516Z,954.27
2023-02-26T07:00:47.580Z,954.33
2023-02-26T07:01:48.609Z,954.29
2023-02-26T07:02:47.562Z,954.27
2023-02-26T07:03:47.476Z,954.32
2023-02-26T07:04:47.611Z,954.35
2023-02-26T07:05:47.471Z,954.41
2023-02-26T07:06:47.475Z,954.43
2023-02-26T07:07:47.514Z,954.4
2023-02-26T07:08:47.537Z,954.38
2023-02-26T07:10:47.585Z,954.42
2023-02-26T07:11:47.596Z,954.43
2023-02-26T07:13:47.564Z,954.42
2023-02-26T07:14:47.518Z,954.45
2023-02-26T07:15:47.501Z,954.49
2023-02-26T07:16:47.504Z,954.54
2023-02-26T07:17:47.507Z,954.51
2023-02-26T07:18:47.491Z,954.52
2023-02-26T07:19:47.622Z,954.48
2023-02-26T07:20:47.498Z,954.5
2023-02-26T07:21:47.515Z,954.49
2023-02-26T07:22:47.533Z,954.51
2023-02-26T07:23:47.520Z,954.53
2023-02-26T07:24:47.525Z,954.52
2023-02-26T07:25:47.526Z,954.49
2023-02-26T07:26:47.508Z,954.54
2023-02-26T07:27:47.529Z,954.51
2023-02-26T07:28:47.532Z,954.47
2023-02-26T07:29:47.524Z,954.55
2023-02-26T07:30:47.635Z,954.54
2023-02-26T07:31:47.645Z,954.52
2023-02-26T07:32:47.522Z,954.57
2023-02-26T07:34:47.613Z,954.61
2023-02-26T07:35:47.563Z,954.59
2023-02-26T07:36:47.557Z,954.6
2023-02-26T07:37:47.534Z,954.58
2023-02-26T07:38:47.550Z,954.6
2023-02-26T07:39:47.685Z,954.56
2023-02-26T07:40:47.588Z,954.62
2023-02-26T07:41:47.599Z,954.61
2023-02-26T07:42:47.542Z,954.56
2023-02-26T07:43:47.668Z,954.58
2023-02-26T07:45:47.561Z,954.57
2023-02-26T07:46:47.549Z,954.63
2023-02-26T07:47:47.565Z,954.61
2023-02-26T07:49:47.557Z,954.59
2023-02-26T07:50:47.561Z,954.63
2023-02-26T07:51:47.580Z,954.58
2023-02-26T07:52:47.575Z,954.6
2023-02-26T07:53:47.565Z,954.62
2023-02-26T07:54:47.677Z,954.63
2023-02-26T07:55:47.566Z,954.65
2023-02-26T07:56:47.595Z,954.67
2023-02-26T07:57:47.570Z,954.66
2023-02-26T07:58:47.578Z,954.72
2023-02-26T07:59:47.579Z,954.73
2023-02-26T08:00:47.574Z,954.72
2023-02-26T08:01:47.648Z,954.77
2023-02-26T08:02:47.621Z,954.83
2023-02-26T08:04:47.633Z,954.85
2023-02-26T08:06:47.646Z,954.9
2023-02-26T08:07:47.604Z,954.93
2023-02-26T08:08:47.593Z,954.92
2023-02-26T08:09:47.717Z,954.88
2023-02-26T08:10:47.606Z,954.85
2023-02-26T08:11:47.608Z,954.91
2023-02-26T08:12:47.601Z,954.92
2023-02-26T08:13:47.620Z,954.94
2023-02-26T08:14:47.631Z,954.89
2023-02-26T08:15:47.651Z,954.96
2023-02-26T08:16:47.619Z,954.95
2023-02-26T08:17:47.632Z,954.96
2023-02-26T08:18:47.711Z,954.95
2023-02-26T08:19:47.632Z,954.98
2023-02-26T08:20:47.631Z,954.95
2023-02-26T08:21:47.933Z,954.97
2023-02-26T08:22:47.796Z,954.94
2023-02-26T08:23:47.626Z,954.87
2023-02-26T08:24:47.637Z,954.83
2023-02-26T08:25:47.641Z,954.78
2023-02-26T08:26:47.771Z,954.84
2023-02-26T08:27:47.731Z,954.95
2023-02-26T08:28:47.649Z,954.9
2023-02-26T08:29:47.660Z,954.95
2023-02-26T08:30:47.637Z,954.94
2023-02-26T08:31:47.740Z,954.92
2023-02-26T08:32:47.696Z,954.87
2023-02-26T08:33:47.653Z,954.86
2023-02-26T08:35:47.889Z,954.79
2023-02-26T08:36:47.742Z,954.78
2023-02-26T08:37:47.665Z,954.74
2023-02-26T08:38:47.675Z,954.7
2023-02-26T08:39:47.672Z,954.69
2023-02-26T08:40:47.679Z,954.62
2023-02-26T08:41:47.685Z,954.54
2023-02-26T08:42:47.751Z,954.48
2023-02-26T08:43:47.716Z,954.47
2023-02-26T08:44:47.829Z,954.46
2023-02-26T08:45:47.692Z,954.45
2023-02-26T08:46:47.737Z,954.54
2023-02-26T08:47:56.502Z,954.5
2023-02-26T08:48:47.681Z,954.51
2023-02-26T08:49:47.698Z,954.53
2023-02-26T08:51:47.857Z,954.54
2023-02-26T08:52:47.733Z,954.58
2023-02-26T08:54:47.814Z,954.54
2023-02-26T08:55:47.711Z,954.58
2023-02-26T08:56:47.724Z,954.62
2023-02-26T08:57:47.720Z,954.65
2023-02-26T08:58:47.739Z,954.69
2023-02-26T08:59:47.728Z,954.75
2023-02-26T09:01:47.874Z,954.76
2023-02-26T09:02:47.846Z,954.82
2023-02-26T09:03:47.890Z,954.86
2023-02-26T09:04:47.742Z,954.89
2023-02-26T09:05:47.774Z,954.97
2023-02-26T09:06:47.752Z,954.99
2023-02-26T09:07:47.746Z,954.94
2023-02-26T09:08:47.744Z,955.01
2023-02-26T09:09:47.763Z,954.96
2023-02-26T09:10:47.836Z,954.99
2023-02-26T09:11:47.758Z,955.01
2023-02-26T09:12:47.813Z,955
2023-02-26T09:13:47.766Z,954.97
2023-02-26T09:14:47.760Z,954.93
2023-02-26T09:15:47.768Z,954.91
2023-02-26T09:16:50.005Z,954.93
2023-02-26T09:17:48.001Z,954.95
2023-02-26T09:18:47.927Z,954.97
2023-02-26T09:19:47.783Z,955.02
2023-02-26T09:20:47.777Z,954.98
2023-02-26T09:21:47.766Z,955
2023-02-26T09:22:47.771Z,955.06
2023-02-26T09:23:47.797Z,955.07
2023-02-26T09:26:47.900Z,955.04
2023-02-26T09:27:47.788Z,955.13
2023-02-26T09:28:47.789Z,955.1
2023-02-26T09:30:47.863Z,955.16
2023-02-26T09:31:47.913Z,955.13
2023-02-26T09:32:47.864Z,955.11
2023-02-26T09:33:47.814Z,955.06
2023-02-26T09:34:47.801Z,955.08
2023-02-26T09:35:47.819Z,955.14
2023-02-26T09:36:47.819Z,955.09
2023-02-26T09:37:47.805Z,955.05
2023-02-26T09:38:47.837Z,955.11
2023-02-26T09:39:47.825Z,955.12
2023-02-26T09:40:47.818Z,955.13
2023-02-26T09:41:47.827Z,955.17
2023-02-26T09:42:47.858Z,955.2
2023-02-26T09:43:47.837Z,955.24
2023-02-26T09:44:47.988Z,955.23
2023-02-26T09:45:47.902Z,955.19
2023-02-26T09:46:47.836Z,955.17
2023-02-26T09:47:47.832Z,955.21
2023-02-26T09:48:47.929Z,955.06
2023-02-26T09:49:47.894Z,955.01
2023-02-26T09:51:50.053Z,955.06
2023-02-26T09:52:47.914Z,955.02
2023-02-26T09:53:47.856Z,954.98
2023-02-26T09:54:47.949Z,954.92
2023-02-26T09:55:47.927Z,954.97
2023-02-26T09:57:48.031Z,955.05
2023-02-26T09:58:47.954Z,955.07
2023-02-26T09:59:47.899Z,955.12
2023-02-26T10:00:47.866Z,955.06
2023-02-26T10:01:47.944Z,955.07
2023-02-26T10:02:47.867Z,955.06
2023-02-26T10:03:47.898Z,955.07
2023-02-26T10:04:47.880Z,955.03
2023-02-26T10:05:47.888Z,954.96
2023-02-26T10:06:47.880Z,955
2023-02-26T10:07:47.889Z,955.07
2023-02-26T10:08:47.892Z,955.15
2023-02-26T10:09:47.894Z,955.12
2023-02-26T10:11:47.966Z,955.15
2023-02-26T10:12:47.961Z,955.19
2023-02-26T10:13:56.952Z,955.21
2023-02-26T10:14:48.029Z,955.23
2023-02-26T10:15:47.911Z,955.19
2023-02-26T10:16:47.968Z,955.21
2023-02-26T10:17:48.015Z,955.19
2023-02-26T10:18:47.913Z,955.2
2023-02-26T10:19:47.913Z,955.22
2023-02-26T10:20:48.055Z,955.2
2023-02-26T10:22:48.702Z,955.23
2023-02-26T10:23:48.097Z,955.16
2023-02-26T10:24:47.931Z,955.13
2023-02-26T10:25:47.927Z,955.15
2023-02-26T10:26:47.925Z,955.17
2023-02-26T10:29:47.939Z,955.2
2023-02-26T10:30:47.973Z,955.22
2023-02-26T10:31:48.054Z,955.26
2023-02-26T10:32:48.063Z,955.21
2023-02-26T10:34:48.059Z,955.2
2023-02-26T10:35:47.960Z,955.15
2023-02-26T10:36:47.952Z,955.2
2023-02-26T10:37:47.943Z,955.26
2023-02-26T10:38:47.989Z,955.29
2023-02-26T10:39:47.951Z,955.18
2023-02-26T10:40:47.974Z,955.16
2023-02-26T10:41:48.047Z,955.12
2023-02-26T10:42:47.969Z,955.18
2023-02-26T10:43:47.951Z,955.23
2023-02-26T10:44:48.090Z,955.24
2023-02-26T10:45:48.044Z,955.26
2023-02-26T10:46:47.980Z,955.25
2023-02-26T10:47:47.962Z,955.2
2023-02-26T10:48:48.130Z,955.23
2023-02-26T10:49:47.977Z,955.25
2023-02-26T10:50:48.073Z,955.28
2023-02-26T10:51:47.996Z,955.34
2023-02-26T10:52:47.976Z,955.3
2023-02-26T10:53:48.022Z,955.32
2023-02-26T10:54:48.007Z,955.27
2023-02-26T10:55:48.189Z,955.2
2023-02-26T10:56:48.098Z,955.12
2023-02-26T10:57:47.994Z,955.16
2023-02-26T10:58:47.993Z,955.22
2023-02-26T10:59:48.062Z,955.18
2023-02-26T11:00:48.016Z,955.23
2023-02-26T11:01:48.044Z,955.2
2023-02-26T11:02:48.064Z,955.15
2023-02-26T11:03:48.145Z,955.18
2023-02-26T11:04:53.843Z,955.28
2023-02-26T11:05:48.262Z,955.21
2023-02-26T11:06:48.038Z,955.19
2023-02-26T11:07:48.023Z,955.23
2023-02-26T11:08:48.066Z,955.2
2023-02-26T11:09:48.038Z,955.18
2023-02-26T11:10:48.028Z,955.17
2023-02-26T11:11:48.029Z,955.16
2023-02-26T11:12:48.050Z,955.13
2023-02-26T11:14:48.143Z,955.12
2023-02-26T11:15:48.123Z,955.19
2023-02-26T11:16:48.138Z,955.18
2023-02-26T11:17:48.110Z,955.1
2023-02-26T11:19:48.136Z,955.08
2023-02-26T11:20:48.071Z,955.11
2023-02-26T11:21:48.062Z,955.09
2023-02-26T11:22:48.092Z,955.11
2023-02-26T11:23:48.070Z,955.13
2023-02-26T11:24:48.053Z,955.11
2023-02-26T11:25:48.146Z,955.06
2023-02-26T11:26:48.108Z,955.12
2023-02-26T11:27:48.072Z,955.09
2023-02-26T11:28:48.090Z,955.12
2023-02-26T11:29:49.351Z,955.04
2023-02-26T11:30:48.287Z,955.08
2023-02-26T11:31:48.174Z,955.03
2023-02-26T11:32:48.137Z,955.02
2023-02-26T11:33:48.088Z,954.97
2023-02-26T11:34:48.096Z,955.02
2023-02-26T11:35:48.289Z,955.03
2023-02-26T11:36:48.111Z,955.09
2023-02-26T11:37:48.149Z,955.1
2023-02-26T11:38:48.098Z,955.15
2023-02-26T11:39:48.097Z,955.18
2023-02-26T11:40:48.285Z,955.26
2023-02-26T11:41:48.171Z,955.27
2023-02-26T11:42:48.101Z,955.2
2023-02-26T11:43:48.111Z,955.27
2023-02-26T11:44:48.115Z,955.23
2023-02-26T11:45:48.124Z,955.3
2023-02-26T11:46:48.166Z,955.29
2023-02-26T11:47:48.234Z,955.31
2023-02-26T11:48:48.123Z,955.35
2023-02-26T11:49:48.127Z,955.32
2023-02-26T11:50:48.323Z,955.27
2023-02-26T11:51:48.213Z,955.26
2023-02-26T11:52:48.152Z,955.3
2023-02-26T11:53:48.129Z,955.29
2023-02-26T11:54:48.142Z,955.25
2023-02-26T11:55:48.176Z,955.27
2023-02-26T11:56:48.195Z,955.22
2023-02-26T11:58:48.238Z,955.24
2023-02-26T11:59:48.148Z,955.21
2023-02-26T12:00:48.154Z,955.28
2023-02-26T12:01:48.142Z,955.24
2023-02-26T12:02:48.313Z,955.26
2023-02-26T12:04:48.237Z,955.27
2023-02-26T12:06:48.295Z,955.25
2023-02-26T12:07:48.319Z,955.3
2023-02-26T12:08:48.156Z,955.34
2023-02-26T12:09:48.166Z,955.32
2023-02-26T12:10:48.156Z,955.39
2023-02-26T12:11:48.176Z,955.31
2023-02-26T12:12:48.179Z,955.36
2023-02-26T12:13:48.191Z,955.41
2023-02-26T12:15:48.284Z,955.34
2023-02-26T12:16:48.194Z,955.31
2023-02-26T12:17:48.181Z,955.32
2023-02-26T12:18:48.191Z,955.31
2023-02-26T12:19:48.195Z,955.36
2023-02-26T12:20:48.209Z,955.32
2023-02-26T12:21:48.228Z,955.34
2023-02-26T12:22:48.222Z,955.3
2023-02-26T12:23:48.203Z,955.33
2023-02-26T12:24:48.200Z,955.31
2023-02-26T12:25:48.321Z,955.29
2023-02-26T12:26:48.265Z,955.27
2023-02-26T12:28:48.279Z,955.32
2023-02-26T12:29:48.231Z,955.35
2023-02-26T12:30:48.238Z,955.39
2023-02-26T12:31:48.302Z,955.38
2023-02-26T12:32:48.223Z,955.39
2023-02-26T12:33:48.249Z,955.38
2023-02-26T12:34:48.230Z,955.34
2023-02-26T12:35:48.248Z,955.36
2023-02-26T12:37:48.331Z,955.34
2023-02-26T12:38:48.257Z,955.37
2023-02-26T12:39:48.367Z,955.38
2023-02-26T12:40:48.239Z,955.37
2023-02-26T12:41:48.264Z,955.31
2023-02-26T12:42:48.239Z,955.32
2023-02-26T12:43:48.256Z,955.3
2023-02-26T12:44:48.320Z,955.33
2023-02-26T12:45:48.395Z,955.34
2023-02-26T12:46:48.402Z,955.25
2023-02-26T12:47:48.267Z,955.31
2023-02-26T12:48:50.511Z,955.37
2023-02-26T12:49:48.285Z,955.35
2023-02-26T12:50:48.282Z,955.43
2023-02-26T12:51:48.283Z,955.49
2023-02-26T12:52:48.357Z,955.48
2023-02-26T12:53:48.297Z,955.53
2023-02-26T12:54:48.284Z,955.5
2023-02-26T12:55:48.276Z,955.55
2023-02-26T12:56:48.277Z,955.56
2023-02-26T12:57:48.281Z,955.61
2023-02-26T12:58:48.359Z,955.54
2023-02-26T12:59:48.431Z,955.57
2023-02-26T13:00:48.345Z,955.6
2023-02-26T13:02:00.216Z,955.58
2023-02-26T13:02:48.325Z,955.61
2023-02-26T13:03:48.424Z,955.62
2023-02-26T13:04:48.290Z,955.61
2023-02-26T13:05:48.306Z,955.56
2023-02-26T13:06:48.408Z,955.53
2023-02-26T13:07:48.371Z,955.5
2023-02-26T13:08:48.321Z,955.51
2023-02-26T13:10:48.467Z,955.5
2023-02-26T13:11:48.887Z,955.47
2023-02-26T13:12:48.419Z,955.52
2023-02-26T13:13:48.416Z,955.42
2023-02-26T13:14:48.340Z,955.4
2023-02-26T13:15:48.336Z,955.41
2023-02-26T13:16:48.399Z,955.4
2023-02-26T13:17:48.465Z,955.35
2023-02-26T13:18:48.444Z,955.34
2023-02-26T13:19:48.330Z,955.38
2023-02-26T13:20:48.472Z,955.42
2023-02-26T13:21:48.428Z,955.38
2023-02-26T13:22:48.398Z,955.4
2023-02-26T13:25:48.444Z,955.42
2023-02-26T13:26:48.592Z,955.41
2023-02-26T13:28:48.395Z,955.44
2023-02-26T13:29:48.419Z,955.37
2023-02-26T13:31:48.568Z,955.45
2023-02-26T13:32:48.487Z,955.42
2023-02-26T13:33:48.365Z,955.34
2023-02-26T13:34:48.364Z,955.38
2023-02-26T13:35:48.363Z,955.42
2023-02-26T13:36:48.386Z,955.44
2023-02-26T13:37:48.363Z,955.41
2023-02-26T13:38:48.403Z,955.45
2023-02-26T13:39:48.445Z,955.46
2023-02-26T13:40:48.389Z,955.47
2023-02-26T13:41:48.479Z,955.42
2023-02-26T13:42:48.381Z,955.44
2023-02-26T13:43:48.404Z,955.49
2023-02-26T13:44:48.397Z,955.54
2023-02-26T13:45:48.487Z,955.51
2023-02-26T13:46:48.416Z,955.42
2023-02-26T13:47:48.539Z,955.45
2023-02-26T13:48:48.510Z,955.5
2023-02-26T13:49:48.431Z,955.51
2023-02-26T13:51:48.764Z,955.54
2023-02-26T13:52:48.434Z,955.51
2023-02-26T13:53:48.411Z,955.52
2023-02-26T13:54:48.409Z,955.51
2023-02-26T13:55:48.423Z,955.47
2023-02-26T13:56:48.413Z,955.5
2023-02-26T13:57:48.426Z,955.49
2023-02-26T13:58:48.418Z,955.53
2023-02-26T13:59:48.423Z,955.5
2023-02-26T14:00:48.533Z,955.45
2023-02-26T14:01:48.418Z,955.47
2023-02-26T14:02:48.440Z,955.55
2023-02-26T14:03:48.436Z,955.43
2023-02-26T14:04:48.578Z,955.38
2023-02-26T14:05:48.443Z,955.31
2023-02-26T14:06:48.450Z,955.29
2023-02-26T14:07:48.454Z,955.36
2023-02-26T14:08:48.474Z,955.41
2023-02-26T14:09:48.532Z,955.37
2023-02-26T14:10:48.440Z,955.43
2023-02-26T14:11:48.466Z,955.48
2023-02-26T14:12:48.445Z,955.49
2023-02-26T14:13:48.572Z,955.36
2023-02-26T14:14:48.460Z,955.39
2023-02-26T14:15:49.854Z,955.37